createdAt,value
2019-03-20T00:00:02.842Z,8.15
2019-03-20T00:00:29.366Z,8.24
2019-03-20T00:00:55.760Z,8.28
2019-03-20T00:01:23.117Z,8.28
2019-03-20T00:01:51.305Z,8.26
2019-03-20T00:02:17.574Z,8.16
2019-03-20T00:02:43.963Z,8.09
2019-03-20T00:03:10.528Z,8.01
2019-03-20T00:03:36.831Z,7.98
2019-03-20T00:04:03.239Z,8
2019-03-20T00:04:29.556Z,7.9
2019-03-20T00:04:57.714Z,7.88
2019-03-20T00:05:24.159Z,7.91
2019-03-20T00:05:50.377Z,7.85
2019-03-20T00:06:16.659Z,7.8
2019-03-20T00:06:43.065Z,7.94
2019-03-20T00:07:09.363Z,7.95
2019-03-20T00:07:35.813Z,7.83
2019-03-20T00:08:02.302Z,7.77
2019-03-20T00:08:28.742Z,7.8
2019-03-20T00:08:55.359Z,7.77
2019-03-20T00:09:21.646Z,7.82
2019-03-20T00:09:47.863Z,7.8
2019-03-20T00:10:14.267Z,7.82
2019-03-20T00:10:40.783Z,7.91
2019-03-20T00:11:07.256Z,7.94
2019-03-20T00:11:33.936Z,8.03
2019-03-20T00:12:00.252Z,8.06
2019-03-20T00:12:26.558Z,8.09
2019-03-20T00:12:52.735Z,8.1
2019-03-20T00:13:18.946Z,8.06
2019-03-20T00:13:45.037Z,8.16
2019-03-20T00:14:11.155Z,8.16
2019-03-20T00:14:37.249Z,8.19
2019-03-20T00:15:03.341Z,8.28
2019-03-20T00:15:29.433Z,8.2
2019-03-20T00:15:55.524Z,8.16
2019-03-20T00:16:21.618Z,8
2019-03-20T00:16:47.708Z,7.98
2019-03-20T00:17:14.555Z,8.1
2019-03-20T00:17:40.648Z,8.1
2019-03-20T00:18:06.774Z,8.13
2019-03-20T00:18:32.886Z,8.16
2019-03-20T00:18:58.978Z,8.19
2019-03-20T00:19:25.073Z,8.16
2019-03-20T00:19:51.190Z,8.26
2019-03-20T00:20:17.311Z,8.26
2019-03-20T00:20:43.403Z,8.28
2019-03-20T00:21:09.494Z,8.2
2019-03-20T00:21:35.587Z,8.31
2019-03-20T00:22:01.686Z,8.28
2019-03-20T00:22:27.774Z,8.3
2019-03-20T00:22:53.995Z,8.3
2019-03-20T00:23:20.088Z,8.28
2019-03-20T00:23:46.179Z,8.34
2019-03-20T00:24:12.270Z,8.31
2019-03-20T00:24:38.362Z,8.27
2019-03-20T00:25:04.482Z,8.31
2019-03-20T00:25:30.576Z,8.36
2019-03-20T00:25:56.693Z,8.27
2019-03-20T00:26:22.788Z,8.27
2019-03-20T00:26:48.886Z,8.3
2019-03-20T00:27:14.999Z,8.28
2019-03-20T00:27:41.091Z,8.28
2019-03-20T00:28:07.184Z,8.27
2019-03-20T00:28:33.278Z,8.2
2019-03-20T00:28:59.370Z,8.16
2019-03-20T00:29:25.469Z,8.2
2019-03-20T00:29:51.554Z,8.1
2019-03-20T00:30:17.674Z,8.1
2019-03-20T00:30:43.765Z,8.06
2019-03-20T00:31:09.883Z,8.16
2019-03-20T00:31:35.975Z,8.19
2019-03-20T00:32:02.070Z,8.23
2019-03-20T00:32:28.161Z,8.3
2019-03-20T00:32:54.298Z,8.18
2019-03-20T00:33:20.373Z,8.1
2019-03-20T00:33:46.479Z,7.97
2019-03-20T00:34:12.585Z,8.01
2019-03-20T00:34:38.680Z,8.12
2019-03-20T00:35:05.784Z,8.1
2019-03-20T00:35:31.874Z,8.08
2019-03-20T00:35:57.968Z,8.13
2019-03-20T00:36:24.091Z,8.1
2019-03-20T00:36:50.183Z,8.15
2019-03-20T00:37:16.276Z,8.1
2019-03-20T00:37:42.387Z,8.19
2019-03-20T00:38:08.461Z,8.18
2019-03-20T00:38:34.554Z,8.08
2019-03-20T00:39:00.647Z,8.1
2019-03-20T00:39:26.740Z,8.03
2019-03-20T00:39:52.832Z,8.01
2019-03-20T00:40:18.950Z,8.01
2019-03-20T00:40:45.040Z,7.98
2019-03-20T00:41:11.131Z,7.97
2019-03-20T00:41:37.223Z,8
2019-03-20T00:42:03.313Z,8.06
2019-03-20T00:42:29.407Z,8.08
2019-03-20T00:42:56.445Z,8.1
2019-03-20T00:43:22.590Z,8.16
2019-03-20T00:43:48.623Z,8.15
2019-03-20T00:44:14.717Z,8.15
2019-03-20T00:44:40.810Z,8.15
2019-03-20T00:45:06.927Z,8.08
2019-03-20T00:45:33.070Z,8.08
2019-03-20T00:45:59.163Z,8.1
2019-03-20T00:46:25.256Z,8.1
2019-03-20T00:46:51.347Z,8.1
2019-03-20T00:47:17.441Z,7.98
2019-03-20T00:47:43.534Z,7.83
2019-03-20T00:48:09.618Z,7.77
2019-03-20T00:48:35.709Z,7.83
2019-03-20T00:49:01.804Z,7.88
2019-03-20T00:49:27.918Z,7.88
2019-03-20T00:49:54.011Z,7.88
2019-03-20T00:50:20.106Z,7.83
2019-03-20T00:50:46.222Z,7.77
2019-03-20T00:51:12.314Z,7.73
2019-03-20T00:51:38.433Z,7.69
2019-03-20T00:52:04.526Z,7.63
2019-03-20T00:52:30.618Z,7.7
2019-03-20T00:52:56.712Z,7.73
2019-03-20T00:53:22.803Z,7.83
2019-03-20T00:53:48.895Z,7.76
2019-03-20T00:54:14.988Z,7.67
2019-03-20T00:54:41.080Z,7.7
2019-03-20T00:55:07.174Z,7.66
2019-03-20T00:55:33.268Z,7.69
2019-03-20T00:55:59.362Z,7.72
2019-03-20T00:56:25.455Z,7.53
2019-03-20T00:56:51.547Z,7.63
2019-03-20T00:57:17.638Z,7.53
2019-03-20T00:57:43.731Z,7.67
2019-03-20T00:58:09.824Z,7.51
2019-03-20T00:58:35.917Z,7.48
2019-03-20T00:59:02.008Z,7.48
2019-03-20T00:59:28.105Z,7.39
2019-03-20T00:59:54.198Z,7.51
2019-03-20T01:00:20.299Z,7.47
2019-03-20T01:00:46.382Z,7.53
2019-03-20T01:01:12.475Z,7.66
2019-03-20T01:01:38.568Z,7.67
2019-03-20T01:02:04.662Z,7.7
2019-03-20T01:02:30.756Z,7.69
2019-03-20T01:02:56.851Z,7.69
2019-03-20T01:03:22.942Z,7.53
2019-03-20T01:03:49.036Z,7.43
2019-03-20T01:04:15.128Z,7.53
2019-03-20T01:04:41.221Z,7.54
2019-03-20T01:05:12.379Z,7.57
2019-03-20T01:05:35.409Z,7.61
2019-03-20T01:06:01.531Z,7.61
2019-03-20T01:06:27.622Z,7.6
2019-03-20T01:06:53.716Z,7.4
2019-03-20T01:07:20.685Z,7.42
2019-03-20T01:07:46.776Z,7.4
2019-03-20T01:08:12.870Z,7.39
2019-03-20T01:08:39.013Z,7.45
2019-03-20T01:09:05.110Z,7.36
2019-03-20T01:09:31.198Z,7.42
2019-03-20T01:09:57.294Z,7.42
2019-03-20T01:10:23.385Z,7.4
2019-03-20T01:10:49.477Z,7.5
2019-03-20T01:11:15.571Z,7.39
2019-03-20T01:11:41.688Z,7.45
2019-03-20T01:12:07.781Z,7.45
2019-03-20T01:12:33.877Z,7.43
2019-03-20T01:12:59.964Z,7.39
2019-03-20T01:13:26.059Z,7.43
2019-03-20T01:13:52.152Z,7.31
2019-03-20T01:14:18.247Z,7.35
2019-03-20T01:14:44.337Z,7.38
2019-03-20T01:15:10.457Z,7.4
2019-03-20T01:15:36.549Z,7.53
2019-03-20T01:16:02.669Z,7.47
2019-03-20T01:16:28.760Z,7.43
2019-03-20T01:16:54.855Z,7.45
2019-03-20T01:17:20.950Z,7.42
2019-03-20T01:17:47.041Z,7.48
2019-03-20T01:18:13.133Z,7.4
2019-03-20T01:18:39.248Z,7.43
2019-03-20T01:19:05.342Z,7.5
2019-03-20T01:19:31.434Z,7.43
2019-03-20T01:19:57.525Z,7.38
2019-03-20T01:20:23.618Z,7.35
2019-03-20T01:20:49.712Z,7.35
2019-03-20T01:21:15.804Z,7.21
2019-03-20T01:21:41.925Z,7.42
2019-03-20T01:22:08.015Z,7.43
2019-03-20T01:22:34.110Z,7.45
2019-03-20T01:23:00.225Z,7.36
2019-03-20T01:23:26.347Z,7.38
2019-03-20T01:23:52.437Z,7.43
2019-03-20T01:24:18.530Z,7.43
2019-03-20T01:24:44.622Z,7.48
2019-03-20T01:25:10.712Z,7.43
2019-03-20T01:25:36.804Z,7.42
2019-03-20T01:26:02.926Z,7.45
2019-03-20T01:26:29.019Z,7.5
2019-03-20T01:26:55.112Z,7.5
2019-03-20T01:27:21.208Z,7.58
2019-03-20T01:27:47.301Z,7.39
2019-03-20T01:28:13.394Z,7.31
2019-03-20T01:28:39.487Z,7.51
2019-03-20T01:29:05.578Z,7.39
2019-03-20T01:29:31.696Z,7.31
2019-03-20T01:29:57.790Z,7.31
2019-03-20T01:30:23.883Z,7.31
2019-03-20T01:30:49.975Z,7.43
2019-03-20T01:31:16.067Z,7.25
2019-03-20T01:31:42.168Z,7.25
2019-03-20T01:32:08.257Z,7.25
2019-03-20T01:32:34.348Z,7.32
2019-03-20T01:33:00.439Z,7.24
2019-03-20T01:33:26.558Z,7.2
2019-03-20T01:33:54.854Z,7.15
2019-03-20T01:34:19.736Z,7.29
2019-03-20T01:34:45.829Z,7.17
2019-03-20T01:35:11.923Z,7.31
2019-03-20T01:35:39.886Z,7.2
2019-03-20T01:36:06.004Z,7.1
2019-03-20T01:36:32.096Z,7.15
2019-03-20T01:36:58.215Z,7.11
2019-03-20T01:37:24.307Z,7.15
2019-03-20T01:37:50.397Z,7.2
2019-03-20T01:38:16.488Z,7.17
2019-03-20T01:38:42.583Z,7.28
2019-03-20T01:39:08.675Z,7.29
2019-03-20T01:39:34.767Z,7.29
2019-03-20T01:40:00.861Z,7.32
2019-03-20T01:40:26.977Z,7.31
2019-03-20T01:40:54.058Z,7.24
2019-03-20T01:41:20.152Z,7.29
2019-03-20T01:41:47.255Z,7.25
2019-03-20T01:42:13.338Z,7.21
2019-03-20T01:42:39.456Z,7.24
2019-03-20T01:43:05.548Z,7.21
2019-03-20T01:43:31.639Z,7.1
2019-03-20T01:43:57.732Z,7.25
2019-03-20T01:44:23.826Z,7.28
2019-03-20T01:44:49.913Z,7.31
2019-03-20T01:45:16.195Z,7.32
2019-03-20T01:45:42.308Z,7.32
2019-03-20T01:46:08.401Z,7.45
2019-03-20T01:46:34.493Z,7.43
2019-03-20T01:47:00.611Z,7.42
2019-03-20T01:47:27.695Z,7.53
2019-03-20T01:47:53.785Z,7.53
2019-03-20T01:48:19.885Z,7.53
2019-03-20T01:48:45.977Z,7.54
2019-03-20T01:49:12.071Z,7.63
2019-03-20T01:49:38.203Z,7.56
2019-03-20T01:50:04.247Z,7.53
2019-03-20T01:50:30.365Z,7.66
2019-03-20T01:50:56.461Z,7.6
2019-03-20T01:51:22.586Z,7.56
2019-03-20T01:51:48.699Z,7.58
2019-03-20T01:52:14.818Z,7.6
2019-03-20T01:52:40.911Z,7.6
2019-03-20T01:53:07.004Z,7.66
2019-03-20T01:53:33.094Z,7.72
2019-03-20T01:53:59.187Z,7.7
2019-03-20T01:54:25.285Z,7.66
2019-03-20T01:54:51.371Z,7.73
2019-03-20T01:55:17.493Z,7.66
2019-03-20T01:55:43.638Z,7.61
2019-03-20T01:56:10.755Z,7.67
2019-03-20T01:56:36.889Z,7.56
2019-03-20T01:57:02.979Z,7.57
2019-03-20T01:57:29.071Z,7.47
2019-03-20T01:57:55.249Z,7.42
2019-03-20T01:58:21.347Z,7.53
2019-03-20T01:58:47.453Z,7.4
2019-03-20T01:59:13.565Z,7.33
2019-03-20T01:59:39.700Z,7.31
2019-03-20T02:00:05.810Z,7.28
2019-03-20T02:00:31.911Z,7.17
2019-03-20T02:00:58.059Z,7.15
2019-03-20T02:01:24.162Z,7.23
2019-03-20T02:01:50.263Z,7.17
2019-03-20T02:02:16.372Z,7.13
2019-03-20T02:02:42.483Z,7.23
2019-03-20T02:03:08.589Z,7.17
2019-03-20T02:03:34.699Z,7.2
2019-03-20T02:04:01.796Z,7.14
2019-03-20T02:04:27.900Z,7.18
2019-03-20T02:04:54.011Z,7.15
2019-03-20T02:05:20.119Z,7.2
2019-03-20T02:05:47.247Z,7.13
2019-03-20T02:06:13.356Z,7.11
2019-03-20T02:06:39.464Z,7.17
2019-03-20T02:07:05.577Z,7.14
2019-03-20T02:07:31.680Z,7.2
2019-03-20T02:07:57.818Z,7.15
2019-03-20T02:08:23.919Z,7.21
2019-03-20T02:08:50.033Z,7.18
2019-03-20T02:09:16.132Z,7.07
2019-03-20T02:09:42.243Z,7.06
2019-03-20T02:10:08.349Z,7.11
2019-03-20T02:10:34.453Z,6.96
2019-03-20T02:11:00.555Z,6.93
2019-03-20T02:11:26.654Z,7.02
2019-03-20T02:11:52.761Z,6.85
2019-03-20T02:12:18.860Z,6.87
2019-03-20T02:12:44.970Z,6.84
2019-03-20T02:13:11.072Z,6.85
2019-03-20T02:13:37.183Z,6.79
2019-03-20T02:14:03.290Z,6.75
2019-03-20T02:14:29.391Z,6.87
2019-03-20T02:14:55.507Z,6.88
2019-03-20T02:15:21.610Z,6.89
2019-03-20T02:15:49.719Z,6.85
2019-03-20T02:16:15.823Z,6.81
2019-03-20T02:16:41.985Z,6.93
2019-03-20T02:17:08.094Z,7.02
2019-03-20T02:17:34.227Z,6.97
2019-03-20T02:18:00.370Z,6.99
2019-03-20T02:18:26.481Z,7.06
2019-03-20T02:18:52.587Z,7.11
2019-03-20T02:19:18.692Z,7.17
2019-03-20T02:19:44.799Z,7.1
2019-03-20T02:20:10.944Z,7.14
2019-03-20T02:20:37.047Z,7.07
2019-03-20T02:21:03.162Z,7.11
2019-03-20T02:21:29.269Z,7.17
2019-03-20T02:21:55.404Z,7.07
2019-03-20T02:22:21.515Z,6.97
2019-03-20T02:22:47.622Z,6.99
2019-03-20T02:23:13.735Z,6.99
2019-03-20T02:23:39.836Z,6.96
2019-03-20T02:24:05.977Z,7
2019-03-20T02:24:32.085Z,7.1
2019-03-20T02:24:58.195Z,6.97
2019-03-20T02:25:24.306Z,7
2019-03-20T02:25:51.424Z,7.05
2019-03-20T02:26:17.510Z,7.18
2019-03-20T02:26:43.618Z,7.11
2019-03-20T02:27:09.731Z,7.18
2019-03-20T02:27:35.836Z,7.13
2019-03-20T02:28:01.958Z,7.18
2019-03-20T02:28:28.073Z,7.17
2019-03-20T02:28:54.187Z,7.14
2019-03-20T02:29:20.299Z,7.11
2019-03-20T02:29:46.432Z,7.03
2019-03-20T02:30:12.570Z,6.95
2019-03-20T02:30:38.678Z,7.11
2019-03-20T02:31:04.783Z,7.14
2019-03-20T02:31:30.887Z,7.13
2019-03-20T02:31:57.015Z,7.06
2019-03-20T02:32:23.122Z,7.06
2019-03-20T02:32:49.262Z,7.15
2019-03-20T02:33:15.425Z,7.03
2019-03-20T02:33:41.564Z,6.99
2019-03-20T02:34:07.709Z,6.99
2019-03-20T02:34:33.813Z,7.02
2019-03-20T02:34:59.950Z,7
2019-03-20T02:35:26.089Z,6.96
2019-03-20T02:35:54.218Z,6.84
2019-03-20T02:36:20.323Z,6.93
2019-03-20T02:36:46.490Z,6.84
2019-03-20T02:37:12.692Z,6.6
2019-03-20T02:37:38.759Z,6.7
2019-03-20T02:38:04.886Z,6.75
2019-03-20T02:38:31.023Z,6.79
2019-03-20T02:38:57.159Z,6.78
2019-03-20T02:39:23.295Z,6.82
2019-03-20T02:39:49.426Z,6.84
2019-03-20T02:40:15.532Z,6.85
2019-03-20T02:40:41.644Z,6.89
2019-03-20T02:41:07.785Z,6.92
2019-03-20T02:41:33.912Z,6.97
2019-03-20T02:42:00.020Z,6.96
2019-03-20T02:42:26.162Z,6.95
2019-03-20T02:42:52.300Z,6.88
2019-03-20T02:43:18.393Z,6.99
2019-03-20T02:43:44.539Z,6.92
2019-03-20T02:44:10.643Z,7
2019-03-20T02:44:36.751Z,6.93
2019-03-20T02:45:02.898Z,6.96
2019-03-20T02:45:29.011Z,6.81
2019-03-20T02:45:55.143Z,6.88
2019-03-20T02:46:21.309Z,6.97
2019-03-20T02:46:47.414Z,7
2019-03-20T02:47:13.522Z,6.92
2019-03-20T02:47:39.657Z,6.82
2019-03-20T02:48:05.775Z,6.85
2019-03-20T02:48:31.904Z,6.77
2019-03-20T02:48:58.073Z,6.85
2019-03-20T02:49:24.255Z,6.87
2019-03-20T02:49:50.441Z,7
2019-03-20T02:50:16.552Z,6.99
2019-03-20T02:50:42.681Z,6.96
2019-03-20T02:51:08.789Z,6.99
2019-03-20T02:51:34.893Z,6.99
2019-03-20T02:52:03.865Z,6.93
2019-03-20T02:52:28.133Z,6.97
2019-03-20T02:52:54.236Z,6.88
2019-03-20T02:53:20.348Z,6.87
2019-03-20T02:53:46.448Z,6.92
2019-03-20T02:54:12.551Z,6.92
2019-03-20T02:54:38.686Z,6.93
2019-03-20T02:55:04.796Z,6.87
2019-03-20T02:55:30.902Z,6.85
2019-03-20T02:55:57.003Z,6.81
2019-03-20T02:56:23.139Z,6.82
2019-03-20T02:56:49.255Z,6.85
2019-03-20T02:57:17.381Z,6.81
2019-03-20T02:57:42.463Z,6.81
2019-03-20T02:58:08.567Z,6.77
2019-03-20T02:58:34.670Z,6.81
2019-03-20T02:59:00.861Z,6.81
2019-03-20T02:59:26.942Z,6.85
2019-03-20T02:59:53.102Z,6.77
2019-03-20T03:00:19.242Z,6.88
2019-03-20T03:00:45.349Z,6.92
2019-03-20T03:01:11.480Z,6.84
2019-03-20T03:01:37.583Z,6.87
2019-03-20T03:02:03.735Z,6.92
2019-03-20T03:02:29.891Z,6.93
2019-03-20T03:02:56.001Z,6.88
2019-03-20T03:03:22.138Z,6.96
2019-03-20T03:03:48.277Z,7.05
2019-03-20T03:04:14.406Z,6.93
2019-03-20T03:04:40.522Z,6.89
2019-03-20T03:05:06.621Z,6.81
2019-03-20T03:05:32.734Z,6.78
2019-03-20T03:06:06.391Z,6.84
2019-03-20T03:06:27.944Z,6.81
2019-03-20T03:06:54.111Z,6.85
2019-03-20T03:07:20.227Z,6.93
2019-03-20T03:07:46.334Z,6.87
2019-03-20T03:08:12.439Z,6.93
2019-03-20T03:08:38.551Z,6.87
2019-03-20T03:09:04.661Z,6.95
2019-03-20T03:09:30.825Z,7
2019-03-20T03:09:56.959Z,7.02
2019-03-20T03:10:23.089Z,7.06
2019-03-20T03:10:49.197Z,6.92
2019-03-20T03:11:16.319Z,6.78
2019-03-20T03:11:42.426Z,6.84
2019-03-20T03:12:08.587Z,6.77
2019-03-20T03:12:34.748Z,6.75
2019-03-20T03:13:00.872Z,6.75
2019-03-20T03:13:26.989Z,6.77
2019-03-20T03:13:53.114Z,6.62
2019-03-20T03:14:19.244Z,6.72
2019-03-20T03:14:45.389Z,6.7
2019-03-20T03:15:11.482Z,6.64
2019-03-20T03:15:37.645Z,6.67
2019-03-20T03:16:03.755Z,6.56
2019-03-20T03:16:29.893Z,6.62
2019-03-20T03:16:56.002Z,6.52
2019-03-20T03:17:22.110Z,6.56
2019-03-20T03:17:48.212Z,6.49
2019-03-20T03:18:14.352Z,6.42
2019-03-20T03:18:40.481Z,6.52
2019-03-20T03:19:06.619Z,6.49
2019-03-20T03:19:32.762Z,6.49
2019-03-20T03:19:58.893Z,6.48
2019-03-20T03:20:24.998Z,6.49
2019-03-20T03:20:51.154Z,6.45
2019-03-20T03:21:17.289Z,6.49
2019-03-20T03:21:43.415Z,6.63
2019-03-20T03:22:09.524Z,6.74
2019-03-20T03:22:35.625Z,6.69
2019-03-20T03:23:01.742Z,6.77
2019-03-20T03:23:27.879Z,6.84
2019-03-20T03:23:54.011Z,6.81
2019-03-20T03:24:20.118Z,6.82
2019-03-20T03:24:46.227Z,6.87
2019-03-20T03:25:12.339Z,6.88
2019-03-20T03:25:38.441Z,6.75
2019-03-20T03:26:05.535Z,6.7
2019-03-20T03:26:31.668Z,6.6
2019-03-20T03:26:57.804Z,6.52
2019-03-20T03:27:24.021Z,6.57
2019-03-20T03:27:50.154Z,6.6
2019-03-20T03:28:16.261Z,6.6
2019-03-20T03:28:42.366Z,6.59
2019-03-20T03:29:08.540Z,6.52
2019-03-20T03:29:34.674Z,6.56
2019-03-20T03:30:00.809Z,6.57
2019-03-20T03:30:27.138Z,6.46
2019-03-20T03:30:53.337Z,6.48
2019-03-20T03:31:19.472Z,6.48
2019-03-20T03:31:45.641Z,6.46
2019-03-20T03:32:11.806Z,6.45
2019-03-20T03:32:37.951Z,6.35
2019-03-20T03:33:04.059Z,6.28
2019-03-20T03:33:30.192Z,6.35
2019-03-20T03:33:56.394Z,6.35
2019-03-20T03:34:22.514Z,6.27
2019-03-20T03:34:48.668Z,6.14
2019-03-20T03:35:18.474Z,6.24
2019-03-20T03:35:42.852Z,6.12
2019-03-20T03:36:20.492Z,6.14
2019-03-20T03:36:37.650Z,6.02
2019-03-20T03:37:03.750Z,6.09
2019-03-20T03:37:29.858Z,6.02
2019-03-20T03:37:55.995Z,6.04
2019-03-20T03:38:22.104Z,6.04
2019-03-20T03:38:48.239Z,5.99
2019-03-20T03:39:14.401Z,5.99
2019-03-20T03:39:40.504Z,6.04
2019-03-20T03:40:06.614Z,5.98
2019-03-20T03:40:32.750Z,5.93
2019-03-20T03:40:58.887Z,6.02
2019-03-20T03:41:25.007Z,6.09
2019-03-20T03:41:51.100Z,6.09
2019-03-20T03:42:17.250Z,6.19
2019-03-20T03:42:43.361Z,6.28
2019-03-20T03:43:09.476Z,6.22
2019-03-20T03:43:35.581Z,6.16
2019-03-20T03:44:01.696Z,6.14
2019-03-20T03:44:27.823Z,6.14
2019-03-20T03:44:53.957Z,6.11
2019-03-20T03:45:20.061Z,6.14
2019-03-20T03:45:46.174Z,6.24
2019-03-20T03:46:12.309Z,6.28
2019-03-20T03:46:38.483Z,6.27
2019-03-20T03:47:04.616Z,6.07
2019-03-20T03:47:30.723Z,6.11
2019-03-20T03:47:56.855Z,6.11
2019-03-20T03:48:22.992Z,6.16
2019-03-20T03:48:49.091Z,6.12
2019-03-20T03:49:15.225Z,6.08
2019-03-20T03:49:41.369Z,6.05
2019-03-20T03:50:07.503Z,6.07
2019-03-20T03:50:33.605Z,6.05
2019-03-20T03:50:59.716Z,5.98
2019-03-20T03:51:25.826Z,5.99
2019-03-20T03:51:52.026Z,6.05
2019-03-20T03:52:18.138Z,5.87
2019-03-20T03:52:44.313Z,5.9
2019-03-20T03:53:10.390Z,5.97
2019-03-20T03:53:36.527Z,5.87
2019-03-20T03:54:02.634Z,5.91
2019-03-20T03:54:28.740Z,5.86
2019-03-20T03:54:54.846Z,5.86
2019-03-20T03:55:21.056Z,5.89
2019-03-20T03:55:47.194Z,5.98
2019-03-20T03:56:13.295Z,5.98
2019-03-20T03:56:39.407Z,5.94
2019-03-20T03:57:05.509Z,5.91
2019-03-20T03:57:31.619Z,6.01
2019-03-20T03:57:57.739Z,6.04
2019-03-20T03:58:23.870Z,6.05
2019-03-20T03:58:49.996Z,6.12
2019-03-20T03:59:16.101Z,6.14
2019-03-20T03:59:42.197Z,6.16
2019-03-20T04:00:08.334Z,6.17
2019-03-20T04:00:34.471Z,6.04
2019-03-20T04:01:00.579Z,6.09
2019-03-20T04:01:26.688Z,6.09
2019-03-20T04:01:52.793Z,6.12
2019-03-20T04:02:18.929Z,6.16
2019-03-20T04:02:45.066Z,6.16
2019-03-20T04:03:11.174Z,6.17
2019-03-20T04:03:37.303Z,6.17
2019-03-20T04:04:03.417Z,6.09
2019-03-20T04:04:29.548Z,6.02
2019-03-20T04:04:55.686Z,5.97
2019-03-20T04:05:21.936Z,6.01
2019-03-20T04:05:48.063Z,6.11
2019-03-20T04:06:14.218Z,6.11
2019-03-20T04:06:42.437Z,6.09
2019-03-20T04:07:08.570Z,6.08
2019-03-20T04:07:34.678Z,6.14
2019-03-20T04:08:00.842Z,6.07
2019-03-20T04:08:26.979Z,6.02
2019-03-20T04:08:53.085Z,6.05
2019-03-20T04:09:19.224Z,5.99
2019-03-20T04:09:45.331Z,6.02
2019-03-20T04:10:11.451Z,5.94
2019-03-20T04:10:37.561Z,5.93
2019-03-20T04:11:03.669Z,5.93
2019-03-20T04:11:29.775Z,5.89
2019-03-20T04:11:55.940Z,5.94
2019-03-20T04:12:22.072Z,5.89
2019-03-20T04:12:48.206Z,5.9
2019-03-20T04:13:14.336Z,5.94
2019-03-20T04:13:40.442Z,6.01
2019-03-20T04:14:06.580Z,5.86
2019-03-20T04:14:32.718Z,5.83
2019-03-20T04:14:58.856Z,5.84
2019-03-20T04:15:24.988Z,5.8
2019-03-20T04:15:52.126Z,5.79
2019-03-20T04:16:18.257Z,5.84
2019-03-20T04:16:44.390Z,5.8
2019-03-20T04:17:10.496Z,5.86
2019-03-20T04:17:36.601Z,5.87
2019-03-20T04:18:02.768Z,5.8
2019-03-20T04:18:28.929Z,5.75
2019-03-20T04:18:55.066Z,5.69
2019-03-20T04:19:21.171Z,5.79
2019-03-20T04:19:47.280Z,5.82
2019-03-20T04:20:13.415Z,5.83
2019-03-20T04:20:39.534Z,5.87
2019-03-20T04:21:05.669Z,5.75
2019-03-20T04:21:31.802Z,5.87
2019-03-20T04:21:57.935Z,5.93
2019-03-20T04:22:24.045Z,5.98
2019-03-20T04:22:50.209Z,5.9
2019-03-20T04:23:16.364Z,5.9
2019-03-20T04:23:42.537Z,5.87
2019-03-20T04:24:08.645Z,5.86
2019-03-20T04:24:34.746Z,5.86
2019-03-20T04:25:00.855Z,5.87
2019-03-20T04:25:27.019Z,5.89
2019-03-20T04:25:53.166Z,5.82
2019-03-20T04:26:19.302Z,5.91
2019-03-20T04:26:45.444Z,5.9
2019-03-20T04:27:11.513Z,5.89
2019-03-20T04:27:37.652Z,5.91
2019-03-20T04:28:03.929Z,6.01
2019-03-20T04:28:30.075Z,5.87
2019-03-20T04:28:56.232Z,5.83
2019-03-20T04:29:22.371Z,5.84
2019-03-20T04:29:48.442Z,5.94
2019-03-20T04:30:14.615Z,5.86
2019-03-20T04:30:40.725Z,5.83
2019-03-20T04:31:06.832Z,5.82
2019-03-20T04:31:32.966Z,5.87
2019-03-20T04:31:59.064Z,6.04
2019-03-20T04:32:25.236Z,5.91
2019-03-20T04:32:51.360Z,5.91
2019-03-20T04:33:17.472Z,5.9
2019-03-20T04:33:43.600Z,5.86
2019-03-20T04:34:09.705Z,5.89
2019-03-20T04:34:35.898Z,5.93
2019-03-20T04:35:01.964Z,6.02
2019-03-20T04:35:28.105Z,5.91
2019-03-20T04:35:54.227Z,5.91
2019-03-20T04:36:20.357Z,5.86
2019-03-20T04:36:48.449Z,5.8
2019-03-20T04:37:14.573Z,5.83
2019-03-20T04:37:40.689Z,5.91
2019-03-20T04:38:06.783Z,6.02
2019-03-20T04:38:32.886Z,5.94
2019-03-20T04:38:58.991Z,5.86
2019-03-20T04:39:25.113Z,5.89
2019-03-20T04:39:51.203Z,6.01
2019-03-20T04:40:17.314Z,6.02
2019-03-20T04:40:43.456Z,5.91
2019-03-20T04:41:09.560Z,5.94
2019-03-20T04:41:35.694Z,6.02
2019-03-20T04:42:01.805Z,6.05
2019-03-20T04:42:27.911Z,6.09
2019-03-20T04:42:54.015Z,6.07
2019-03-20T04:43:20.115Z,6.12
2019-03-20T04:43:46.258Z,6.14
2019-03-20T04:44:12.367Z,6.08
2019-03-20T04:44:38.466Z,5.98
2019-03-20T04:45:04.566Z,6.05
2019-03-20T04:45:31.665Z,6.05
2019-03-20T04:45:57.768Z,6.04
2019-03-20T04:46:23.874Z,6.02
2019-03-20T04:46:50.007Z,6.01
2019-03-20T04:47:16.115Z,6.08
2019-03-20T04:47:42.218Z,6.02
2019-03-20T04:48:08.324Z,6.01
2019-03-20T04:48:34.433Z,5.97
2019-03-20T04:49:00.538Z,5.93
2019-03-20T04:49:26.649Z,6.05
2019-03-20T04:49:52.763Z,5.99
2019-03-20T04:50:18.869Z,6.05
2019-03-20T04:50:45.000Z,5.98
2019-03-20T04:51:11.108Z,5.87
2019-03-20T04:51:37.220Z,5.9
2019-03-20T04:52:03.331Z,5.97
2019-03-20T04:52:29.437Z,6.09
2019-03-20T04:52:55.551Z,6.04
2019-03-20T04:53:21.654Z,6.02
2019-03-20T04:53:47.783Z,5.97
2019-03-20T04:54:13.894Z,5.98
2019-03-20T04:54:39.999Z,6.02
2019-03-20T04:55:06.139Z,6.05
2019-03-20T04:55:32.246Z,6.05
2019-03-20T04:55:58.360Z,6.02
2019-03-20T04:56:24.467Z,6.08
2019-03-20T04:56:50.573Z,6.04
2019-03-20T04:57:16.683Z,5.98
2019-03-20T04:57:45.364Z,6.02
2019-03-20T04:58:09.913Z,6.09
2019-03-20T04:58:36.022Z,6.2
2019-03-20T04:59:02.125Z,6.16
2019-03-20T04:59:28.234Z,6.16
2019-03-20T04:59:54.386Z,6.09
2019-03-20T05:00:20.442Z,6.17
2019-03-20T05:00:46.553Z,6.14
2019-03-20T05:01:12.686Z,6.12
2019-03-20T05:01:38.786Z,6.08
2019-03-20T05:02:04.916Z,6.12
2019-03-20T05:02:31.025Z,6.12
2019-03-20T05:02:57.121Z,6.16
2019-03-20T05:03:23.233Z,6.24
2019-03-20T05:03:49.339Z,6.19
2019-03-20T05:04:15.451Z,6.04
2019-03-20T05:04:41.596Z,6.04
2019-03-20T05:05:07.706Z,6.11
2019-03-20T05:05:33.809Z,6.04
2019-03-20T05:05:59.914Z,6.04
2019-03-20T05:06:26.024Z,6.12
2019-03-20T05:06:58.569Z,6.09
2019-03-20T05:07:20.272Z,6.09
2019-03-20T05:07:46.378Z,6.08
2019-03-20T05:08:12.483Z,6.05
2019-03-20T05:08:38.580Z,5.99
2019-03-20T05:09:05.300Z,6.01
2019-03-20T05:09:31.418Z,5.94
2019-03-20T05:09:57.516Z,5.9
2019-03-20T05:10:23.632Z,5.98
2019-03-20T05:10:49.740Z,6.01
2019-03-20T05:11:15.859Z,6.04
2019-03-20T05:11:41.962Z,6.05
2019-03-20T05:12:08.047Z,6.05
2019-03-20T05:12:34.153Z,6.08
2019-03-20T05:13:00.257Z,6.09
2019-03-20T05:13:26.369Z,6.02
2019-03-20T05:13:52.502Z,6.04
2019-03-20T05:14:18.607Z,6.01
2019-03-20T05:14:44.747Z,6.09
2019-03-20T05:15:10.913Z,6.08
2019-03-20T05:15:37.000Z,6.04
2019-03-20T05:16:03.103Z,6.02
2019-03-20T05:16:29.216Z,6.04
2019-03-20T05:16:55.321Z,6.19
2019-03-20T05:17:21.429Z,6.08
2019-03-20T05:17:47.534Z,6.07
2019-03-20T05:18:13.639Z,6.01
2019-03-20T05:18:39.751Z,6.04
2019-03-20T05:19:05.910Z,5.97
2019-03-20T05:19:31.988Z,5.98
2019-03-20T05:19:58.100Z,6.01
2019-03-20T05:20:24.202Z,6.07
2019-03-20T05:20:50.311Z,6.11
2019-03-20T05:21:16.412Z,6.11
2019-03-20T05:21:42.520Z,6.07
2019-03-20T05:22:08.623Z,6.24
2019-03-20T05:22:34.748Z,6.16
2019-03-20T05:23:00.856Z,6.01
2019-03-20T05:23:27.955Z,5.99
2019-03-20T05:23:54.060Z,5.97
2019-03-20T05:24:20.165Z,5.89
2019-03-20T05:24:46.310Z,5.94
2019-03-20T05:25:12.411Z,5.93
2019-03-20T05:25:38.520Z,6.01
2019-03-20T05:26:04.637Z,5.94
2019-03-20T05:26:30.744Z,5.91
2019-03-20T05:26:56.854Z,5.97
2019-03-20T05:27:22.953Z,5.94
2019-03-20T05:27:49.100Z,5.98
2019-03-20T05:28:15.209Z,5.93
2019-03-20T05:28:41.313Z,5.8
2019-03-20T05:29:07.455Z,5.84
2019-03-20T05:29:33.562Z,5.83
2019-03-20T05:29:59.666Z,5.97
2019-03-20T05:30:25.806Z,5.84
2019-03-20T05:30:51.913Z,5.84
2019-03-20T05:31:18.018Z,5.86
2019-03-20T05:31:44.135Z,5.76
2019-03-20T05:32:10.247Z,5.86
2019-03-20T05:32:36.349Z,5.83
2019-03-20T05:33:02.483Z,5.83
2019-03-20T05:33:28.603Z,5.93
2019-03-20T05:33:54.713Z,5.89
2019-03-20T05:34:20.822Z,5.89
2019-03-20T05:34:46.932Z,5.87
2019-03-20T05:35:13.041Z,5.84
2019-03-20T05:35:39.144Z,5.76
2019-03-20T05:36:05.269Z,5.69
2019-03-20T05:36:31.389Z,5.75
2019-03-20T05:36:57.495Z,5.79
2019-03-20T05:37:24.625Z,5.66
2019-03-20T05:37:50.757Z,5.69
2019-03-20T05:38:16.865Z,5.72
2019-03-20T05:38:43.000Z,5.76
2019-03-20T05:39:09.272Z,5.97
2019-03-20T05:39:36.384Z,5.99
2019-03-20T05:40:02.514Z,6.04
2019-03-20T05:40:28.642Z,6.08
2019-03-20T05:40:54.771Z,6.09
2019-03-20T05:41:20.879Z,6.07
2019-03-20T05:41:47.016Z,6.09
2019-03-20T05:42:13.153Z,6.11
2019-03-20T05:42:39.256Z,6.08
2019-03-20T05:43:05.366Z,6.17
2019-03-20T05:43:31.468Z,6.11
2019-03-20T05:43:57.578Z,6.04
2019-03-20T05:44:23.682Z,5.97
2019-03-20T05:44:49.792Z,6.08
2019-03-20T05:45:15.988Z,6.02
2019-03-20T05:45:42.097Z,5.98
2019-03-20T05:46:08.203Z,6.04
2019-03-20T05:46:34.338Z,6.07
2019-03-20T05:47:00.436Z,6.07
2019-03-20T05:47:26.547Z,6.19
2019-03-20T05:47:52.662Z,6.19
2019-03-20T05:48:18.767Z,6.11
2019-03-20T05:48:44.898Z,6.14
2019-03-20T05:49:11.010Z,6.28
2019-03-20T05:49:37.120Z,6.14
2019-03-20T05:50:03.234Z,6.2